sensor_id;sensor_type;location;lat;lon;timestamp;P1;durP1;ratioP1;P2;durP2;ratioP2
20511;SDS011;10414;52.074;5.126;2023-04-03T00:00:08;5.63;;;1.52;;
20511;SDS011;10414;52.074;5.126;2023-04-03T00:02:36;4.15;;;1.40;;
20511;SDS011;10414;52.074;5.126;2023-04-03T00:05:03;4.43;;;1.42;;
20511;SDS011;10414;52.074;5.126;2023-04-03T00:07:30;3.63;;;1.20;;
20511;SDS011;10414;52.074;5.126;2023-04-03T00:09:58;4.70;;;1.48;;
20511;SDS011;10414;52.074;5.126;2023-04-03T00:12:25;6.22;;;1.40;;
20511;SDS011;10414;52.074;5.126;2023-04-03T00:14:52;4.25;;;1.60;;
20511;SDS011;10414;52.074;5.126;2023-04-03T00:17:19;6.63;;;1.70;;
20511;SDS011;10414;52.074;5.126;2023-04-03T00:19:46;4.10;;;1.20;;
20511;SDS011;10414;52.074;5.126;2023-04-03T00:22:14;4.75;;;1.50;;
20511;SDS011;10414;52.074;5.126;2023-04-03T00:24:40;3.90;;;1.70;;
20511;SDS011;10414;52.074;5.126;2023-04-03T00:27:09;8.30;;;2.00;;
20511;SDS011;10414;52.074;5.126;2023-04-03T00:29:36;4.85;;;1.50;;
20511;SDS011;10414;52.074;5.126;2023-04-03T00:32:03;4.95;;;1.35;;
20511;SDS011;10414;52.074;5.126;2023-04-03T00:34:30;4.35;;;1.42;;
20511;SDS011;10414;52.074;5.126;2023-04-03T00:36:56;3.03;;;1.25;;
20511;SDS011;10414;52.074;5.126;2023-04-03T00:39:23;3.60;;;1.25;;
20511;SDS011;10414;52.074;5.126;2023-04-03T00:41:50;5.80;;;1.27;;
20511;SDS011;10414;52.074;5.126;2023-04-03T00:44:22;5.65;;;1.42;;
20511;SDS011;10414;52.074;5.126;2023-04-03T00:47:10;3.58;;;1.52;;
20511;SDS011;10414;52.074;5.126;2023-04-03T00:49:39;3.00;;;1.30;;
20511;SDS011;10414;52.074;5.126;2023-04-03T00:52:07;4.10;;;1.55;;
20511;SDS011;10414;52.074;5.126;2023-04-03T00:54:38;4.65;;;1.38;;
20511;SDS011;10414;52.074;5.126;2023-04-03T00:57:08;5.63;;;1.40;;
20511;SDS011;10414;52.074;5.126;2023-04-03T00:59:38;6.05;;;1.45;;
20511;SDS011;10414;52.074;5.126;2023-04-03T01:02:09;3.97;;;1.50;;
20511;SDS011;10414;52.074;5.126;2023-04-03T01:04:36;5.78;;;1.50;;
20511;SDS011;10414;52.074;5.126;2023-04-03T01:07:05;5.05;;;1.52;;
20511;SDS011;10414;52.074;5.126;2023-04-03T01:09:34;5.95;;;1.70;;
20511;SDS011;10414;52.074;5.126;2023-04-03T01:14:48;3.60;;;1.40;;
20511;SDS011;10414;52.074;5.126;2023-04-03T01:17:27;4.57;;;1.42;;
20511;SDS011;10414;52.074;5.126;2023-04-03T01:19:57;3.42;;;1.20;;
20511;SDS011;10414;52.074;5.126;2023-04-03T01:22:43;3.75;;;1.10;;
20511;SDS011;10414;52.074;5.126;2023-04-03T01:25:16;8.90;;;1.63;;
20511;SDS011;10414;52.074;5.126;2023-04-03T01:27:44;3.85;;;1.45;;
20511;SDS011;10414;52.074;5.126;2023-04-03T01:30:12;3.80;;;1.65;;
20511;SDS011;10414;52.074;5.126;2023-04-03T01:32:44;4.07;;;1.20;;
20511;SDS011;10414;52.074;5.126;2023-04-03T01:35:11;5.45;;;1.60;;
20511;SDS011;10414;52.074;5.126;2023-04-03T01:37:38;6.20;;;1.35;;
20511;SDS011;10414;52.074;5.126;2023-04-03T01:40:05;3.42;;;1.25;;
20511;SDS011;10414;52.074;5.126;2023-04-03T01:42:33;4.72;;;1.27;;
20511;SDS011;10414;52.074;5.126;2023-04-03T01:45:00;3.85;;;1.70;;
20511;SDS011;10414;52.074;5.126;2023-04-03T01:47:27;3.45;;;1.38;;
20511;SDS011;10414;52.074;5.126;2023-04-03T01:49:55;4.57;;;1.77;;
20511;SDS011;10414;52.074;5.126;2023-04-03T01:52:22;4.70;;;1.50;;
20511;SDS011;10414;52.074;5.126;2023-04-03T01:54:49;6.05;;;1.50;;
20511;SDS011;10414;52.074;5.126;2023-04-03T01:57:16;4.32;;;1.27;;
20511;SDS011;10414;52.074;5.126;2023-04-03T01:59:43;4.43;;;1.52;;
20511;SDS011;10414;52.074;5.126;2023-04-03T02:02:10;4.45;;;1.40;;
20511;SDS011;10414;52.074;5.126;2023-04-03T02:04:39;6.28;;;1.40;;
20511;SDS011;10414;52.074;5.126;2023-04-03T02:07:07;4.93;;;1.40;;
20511;SDS011;10414;52.074;5.126;2023-04-03T02:09:35;4.32;;;1.30;;
20511;SDS011;10414;52.074;5.126;2023-04-03T02:12:01;5.00;;;1.55;;
20511;SDS011;10414;52.074;5.126;2023-04-03T02:14:28;2.80;;;1.30;;
20511;SDS011;10414;52.074;5.126;2023-04-03T02:16:55;5.28;;;1.50;;
20511;SDS011;10414;52.074;5.126;2023-04-03T02:19:22;5.63;;;1.60;;
20511;SDS011;10414;52.074;5.126;2023-04-03T02:21:49;4.68;;;1.40;;
20511;SDS011;10414;52.074;5.126;2023-04-03T02:24:17;4.07;;;1.60;;
20511;SDS011;10414;52.074;5.126;2023-04-03T02:26:44;4.38;;;1.35;;
20511;SDS011;10414;52.074;5.126;2023-04-03T02:29:11;4.57;;;1.55;;
20511;SDS011;10414;52.074;5.126;2023-04-03T02:31:38;6.03;;;1.40;;
20511;SDS011;10414;52.074;5.126;2023-04-03T02:34:05;4.55;;;1.73;;
20511;SDS011;10414;52.074;5.126;2023-04-03T02:36:32;6.30;;;1.80;;
20511;SDS011;10414;52.074;5.126;2023-04-03T02:38:59;6.03;;;1.52;;
20511;SDS011;10414;52.074;5.126;2023-04-03T02:41:27;6.32;;;1.50;;
20511;SDS011;10414;52.074;5.126;2023-04-03T02:43:59;7.57;;;1.70;;
20511;SDS011;10414;52.074;5.126;2023-04-03T02:46:26;3.83;;;1.48;;
20511;SDS011;10414;52.074;5.126;2023-04-03T02:48:53;6.10;;;1.50;;
20511;SDS011;10414;52.074;5.126;2023-04-03T02:51:21;3.95;;;1.63;;
20511;SDS011;10414;52.074;5.126;2023-04-03T02:53:49;5.35;;;1.67;;
20511;SDS011;10414;52.074;5.126;2023-04-03T02:56:16;4.43;;;1.40;;
20511;SDS011;10414;52.074;5.126;2023-04-03T02:58:45;4.35;;;1.42;;
20511;SDS011;10414;52.074;5.126;2023-04-03T03:01:12;6.10;;;1.60;;
20511;SDS011;10414;52.074;5.126;2023-04-03T03:03:39;4.40;;;1.65;;
20511;SDS011;10414;52.074;5.126;2023-04-03T03:06:07;4.85;;;1.50;;
20511;SDS011;10414;52.074;5.126;2023-04-03T03:08:35;5.43;;;1.40;;
20511;SDS011;10414;52.074;5.126;2023-04-03T03:11:03;5.32;;;1.52;;
20511;SDS011;10414;52.074;5.126;2023-04-03T03:13:30;4.93;;;1.75;;
20511;SDS011;10414;52.074;5.126;2023-04-03T03:15:59;6.35;;;1.95;;
20511;SDS011;10414;52.074;5.126;2023-04-03T03:18:26;5.25;;;1.65;;
20511;SDS011;10414;52.074;5.126;2023-04-03T03:20:54;10.23;;;1.88;;
20511;SDS011;10414;52.074;5.126;2023-04-03T03:23:22;7.07;;;1.80;;
20511;SDS011;10414;52.074;5.126;2023-04-03T03:25:54;5.78;;;1.73;;
20511;SDS011;10414;52.074;5.126;2023-04-03T03:30:48;6.15;;;1.85;;
20511;SDS011;10414;52.074;5.126;2023-04-03T03:33:16;6.15;;;1.80;;
20511;SDS011;10414;52.074;5.126;2023-04-03T03:35:43;7.13;;;1.88;;
20511;SDS011;10414;52.074;5.126;2023-04-03T03:38:11;5.57;;;1.60;;
20511;SDS011;10414;52.074;5.126;2023-04-03T03:40:38;6.53;;;2.00;;
20511;SDS011;10414;52.074;5.126;2023-04-03T03:43:05;7.65;;;2.40;;
20511;SDS011;10414;52.074;5.126;2023-04-03T03:45:31;4.85;;;1.70;;
20511;SDS011;10414;52.074;5.126;2023-04-03T03:47:58;4.68;;;1.80;;
20511;SDS011;10414;52.074;5.126;2023-04-03T03:50:26;4.40;;;1.60;;
20511;SDS011;10414;52.074;5.126;2023-04-03T03:52:53;4.88;;;1.77;;
20511;SDS011;10414;52.074;5.126;2023-04-03T03:55:20;5.55;;;1.85;;
20511;SDS011;10414;52.074;5.126;2023-04-03T03:57:47;4.82;;;1.63;;
20511;SDS011;10414;52.074;5.126;2023-04-03T04:00:14;6.30;;;1.83;;
20511;SDS011;10414;52.074;5.126;2023-04-03T04:02:41;5.35;;;2.38;;
20511;SDS011;10414;52.074;5.126;2023-04-03T04:05:09;6.13;;;2.42;;
20511;SDS011;10414;52.074;5.126;2023-04-03T04:07:38;8.27;;;1.98;;
20511;SDS011;10414;52.074;5.126;2023-04-03T04:10:05;5.32;;;1.75;;
20511;SDS011;10414;52.074;5.126;2023-04-03T04:12:32;8.38;;;2.10;;
20511;SDS011;10414;52.074;5.126;2023-04-03T04:15:00;6.97;;;2.22;;
20511;SDS011;10414;52.074;5.126;2023-04-03T04:17:27;6.88;;;1.80;;
20511;SDS011;10414;52.074;5.126;2023-04-03T04:19:54;4.47;;;1.83;;
20511;SDS011;10414;52.074;5.126;2023-04-03T04:22:21;6.22;;;1.75;;
20511;SDS011;10414;52.074;5.126;2023-04-03T04:24:49;4.38;;;1.83;;
20511;SDS011;10414;52.074;5.126;2023-04-03T04:27:16;6.70;;;2.05;;
20511;SDS011;10414;52.074;5.126;2023-04-03T04:29:43;5.75;;;2.38;;
20511;SDS011;10414;52.074;5.126;2023-04-03T04:32:10;5.60;;;2.40;;
20511;SDS011;10414;52.074;5.126;2023-04-03T04:34:36;4.85;;;2.00;;
20511;SDS011;10414;52.074;5.126;2023-04-03T04:37:03;8.50;;;2.05;;
20511;SDS011;10414;52.074;5.126;2023-04-03T04:39:30;7.78;;;1.90;;
20511;SDS011;10414;52.074;5.126;2023-04-03T04:42:02;9.07;;;2.30;;
20511;SDS011;10414;52.074;5.126;2023-04-03T04:44:29;7.20;;;2.25;;
20511;SDS011;10414;52.074;5.126;2023-04-03T04:46:56;5.88;;;2.72;;
20511;SDS011;10414;52.074;5.126;2023-04-03T04:49:23;8.23;;;2.10;;
20511;SDS011;10414;52.074;5.126;2023-04-03T04:51:49;4.82;;;1.85;;
20511;SDS011;10414;52.074;5.126;2023-04-03T04:54:16;5.53;;;2.10;;
20511;SDS011;10414;52.074;5.126;2023-04-03T04:56:43;7.55;;;1.98;;
20511;SDS011;10414;52.074;5.126;2023-04-03T04:59:11;7.30;;;2.17;;
20511;SDS011;10414;52.074;5.126;2023-04-03T05:01:38;7.05;;;2.00;;
20511;SDS011;10414;52.074;5.126;2023-04-03T05:04:06;7.07;;;2.50;;
20511;SDS011;10414;52.074;5.126;2023-04-03T05:06:34;8.55;;;2.20;;
20511;SDS011;10414;52.074;5.126;2023-04-03T05:09:01;8.25;;;2.40;;
20511;SDS011;10414;52.074;5.126;2023-04-03T05:11:27;4.82;;;2.10;;
20511;SDS011;10414;52.074;5.126;2023-04-03T05:13:54;7.22;;;1.98;;
20511;SDS011;10414;52.074;5.126;2023-04-03T05:16:23;4.68;;;2.17;;
20511;SDS011;10414;52.074;5.126;2023-04-03T05:18:50;12.57;;;2.70;;
20511;SDS011;10414;52.074;5.126;2023-04-03T05:21:17;5.10;;;2.22;;
20511;SDS011;10414;52.074;5.126;2023-04-03T05:23:44;10.05;;;2.00;;
20511;SDS011;10414;52.074;5.126;2023-04-03T05:26:11;6.53;;;1.90;;
20511;SDS011;10414;52.074;5.126;2023-04-03T05:28:38;6.40;;;2.30;;
20511;SDS011;10414;52.074;5.126;2023-04-03T05:31:05;5.93;;;2.22;;
20511;SDS011;10414;52.074;5.126;2023-04-03T05:33:33;8.30;;;2.78;;
20511;SDS011;10414;52.074;5.126;2023-04-03T05:36:02;8.02;;;2.38;;
20511;SDS011;10414;52.074;5.126;2023-04-03T05:38:29;9.07;;;3.08;;
20511;SDS011;10414;52.074;5.126;2023-04-03T05:40:56;6.10;;;2.40;;
20511;SDS011;10414;52.074;5.126;2023-04-03T05:43:23;5.60;;;2.15;;
20511;SDS011;10414;52.074;5.126;2023-04-03T05:45:50;6.85;;;2.40;;
20511;SDS011;10414;52.074;5.126;2023-04-03T05:48:17;6.68;;;2.33;;
20511;SDS011;10414;52.074;5.126;2023-04-03T05:50:45;8.25;;;2.40;;
20511;SDS011;10414;52.074;5.126;2023-04-03T05:53:14;8.20;;;2.25;;
20511;SDS011;10414;52.074;5.126;2023-04-03T05:55:43;6.78;;;2.55;;
20511;SDS011;10414;52.074;5.126;2023-04-03T05:58:10;5.82;;;2.25;;
20511;SDS011;10414;52.074;5.126;2023-04-03T06:00:38;9.23;;;3.22;;
20511;SDS011;10414;52.074;5.126;2023-04-03T06:03:05;8.73;;;2.60;;
20511;SDS011;10414;52.074;5.126;2023-04-03T06:05:32;7.15;;;2.35;;
20511;SDS011;10414;52.074;5.126;2023-04-03T06:08:00;5.63;;;2.15;;
20511;SDS011;10414;52.074;5.126;2023-04-03T06:10:28;3.78;;;1.58;;
20511;SDS011;10414;52.074;5.126;2023-04-03T06:12:54;5.30;;;1.60;;
20511;SDS011;10414;52.074;5.126;2023-04-03T06:15:21;6.15;;;1.70;;
20511;SDS011;10414;52.074;5.126;2023-04-03T06:17:48;7.28;;;2.10;;
20511;SDS011;10414;52.074;5.126;2023-04-03T06:20:15;5.75;;;1.60;;
20511;SDS011;10414;52.074;5.126;2023-04-03T06:22:42;6.45;;;1.90;;
20511;SDS011;10414;52.074;5.126;2023-04-03T06:25:10;5.00;;;1.63;;
20511;SDS011;10414;52.074;5.126;2023-04-03T06:27:37;5.03;;;1.38;;
20511;SDS011;10414;52.074;5.126;2023-04-03T06:30:06;4.22;;;1.60;;
20511;SDS011;10414;52.074;5.126;2023-04-03T06:32:33;7.40;;;1.80;;
20511;SDS011;10414;52.074;5.126;2023-04-03T06:35:00;4.63;;;1.75;;
20511;SDS011;10414;52.074;5.126;2023-04-03T06:37:27;3.60;;;1.40;;
20511;SDS011;10414;52.074;5.126;2023-04-03T06:39:55;5.55;;;1.50;;
20511;SDS011;10414;52.074;5.126;2023-04-03T06:42:23;5.63;;;1.42;;
20511;SDS011;10414;52.074;5.126;2023-04-03T06:44:50;4.53;;;1.50;;
20511;SDS011;10414;52.074;5.126;2023-04-03T06:47:17;4.80;;;1.60;;
20511;SDS011;10414;52.074;5.126;2023-04-03T06:49:44;6.45;;;1.75;;
20511;SDS011;10414;52.074;5.126;2023-04-03T06:52:11;5.85;;;1.42;;
20511;SDS011;10414;52.074;5.126;2023-04-03T06:54:38;7.53;;;2.88;;
20511;SDS011;10414;52.074;5.126;2023-04-03T06:57:05;6.13;;;1.98;;
20511;SDS011;10414;52.074;5.126;2023-04-03T06:59:34;4.40;;;1.23;;
20511;SDS011;10414;52.074;5.126;2023-04-03T07:02:01;5.60;;;1.50;;
20511;SDS011;10414;52.074;5.126;2023-04-03T07:04:28;4.95;;;1.42;;
20511;SDS011;10414;52.074;5.126;2023-04-03T07:06:55;5.07;;;1.58;;
20511;SDS011;10414;52.074;5.126;2023-04-03T07:09:22;4.20;;;1.58;;
20511;SDS011;10414;52.074;5.126;2023-04-03T07:11:49;5.28;;;1.52;;
20511;SDS011;10414;52.074;5.126;2023-04-03T07:14:16;5.30;;;1.65;;
20511;SDS011;10414;52.074;5.126;2023-04-03T07:16:44;7.13;;;1.70;;
20511;SDS011;10414;52.074;5.126;2023-04-03T07:19:11;5.40;;;1.65;;
20511;SDS011;10414;52.074;5.126;2023-04-03T07:21:38;5.05;;;1.33;;
20511;SDS011;10414;52.074;5.126;2023-04-03T07:24:08;3.67;;;1.45;;
20511;SDS011;10414;52.074;5.126;2023-04-03T07:26:35;5.18;;;1.60;;
20511;SDS011;10414;52.074;5.126;2023-04-03T07:29:02;3.55;;;1.30;;
20511;SDS011;10414;52.074;5.126;2023-04-03T07:31:29;5.05;;;1.55;;
20511;SDS011;10414;52.074;5.126;2023-04-03T07:33:57;7.57;;;1.58;;
20511;SDS011;10414;52.074;5.126;2023-04-03T07:36:24;6.18;;;1.70;;
20511;SDS011;10414;52.074;5.126;2023-04-03T07:38:51;5.65;;;1.75;;
20511;SDS011;10414;52.074;5.126;2023-04-03T07:41:19;5.55;;;2.08;;
20511;SDS011;10414;52.074;5.126;2023-04-03T07:43:48;4.78;;;1.48;;
20511;SDS011;10414;52.074;5.126;2023-04-03T07:46:15;6.78;;;1.58;;
20511;SDS011;10414;52.074;5.126;2023-04-03T07:48:43;3.78;;;1.30;;
20511;SDS011;10414;52.074;5.126;2023-04-03T07:51:11;7.20;;;1.83;;
20511;SDS011;10414;52.074;5.126;2023-04-03T07:53:39;4.85;;;1.55;;
20511;SDS011;10414;52.074;5.126;2023-04-03T07:56:06;4.70;;;1.40;;
20511;SDS011;10414;52.074;5.126;2023-04-03T07:58:33;5.63;;;1.20;;
20511;SDS011;10414;52.074;5.126;2023-04-03T08:01:00;5.63;;;1.60;;
20511;SDS011;10414;52.074;5.126;2023-04-03T08:03:27;5.20;;;1.40;;
20511;SDS011;10414;52.074;5.126;2023-04-03T08:05:54;4.13;;;1.33;;
20511;SDS011;10414;52.074;5.126;2023-04-03T08:08:22;5.85;;;1.35;;
20511;SDS011;10414;52.074;5.126;2023-04-03T08:10:49;5.07;;;1.70;;
20511;SDS011;10414;52.074;5.126;2023-04-03T08:13:17;8.45;;;2.38;;
20511;SDS011;10414;52.074;5.126;2023-04-03T08:15:44;4.80;;;1.35;;
20511;SDS011;10414;52.074;5.126;2023-04-03T08:18:11;4.45;;;1.27;;
20511;SDS011;10414;52.074;5.126;2023-04-03T08:20:39;6.82;;;1.48;;
20511;SDS011;10414;52.074;5.126;2023-04-03T08:23:07;3.70;;;1.05;;
20511;SDS011;10414;52.074;5.126;2023-04-03T08:25:36;5.50;;;1.38;;
20511;SDS011;10414;52.074;5.126;2023-04-03T08:28:04;4.18;;;1.45;;
20511;SDS011;10414;52.074;5.126;2023-04-03T08:30:31;4.32;;;1.40;;
20511;SDS011;10414;52.074;5.126;2023-04-03T08:32:59;3.17;;;1.13;;
20511;SDS011;10414;52.074;5.126;2023-04-03T08:35:27;4.45;;;1.10;;
20511;SDS011;10414;52.074;5.126;2023-04-03T08:37:53;5.07;;;1.20;;
20511;SDS011;10414;52.074;5.126;2023-04-03T08:40:21;5.93;;;1.35;;
20511;SDS011;10414;52.074;5.126;2023-04-03T08:42:53;4.88;;;1.50;;
20511;SDS011;10414;52.074;5.126;2023-04-03T08:45:34;3.45;;;1.13;;
20511;SDS011;10414;52.074;5.126;2023-04-03T08:48:10;3.85;;;1.02;;
20511;SDS011;10414;52.074;5.126;2023-04-03T08:50:41;3.45;;;1.10;;
20511;SDS011;10414;52.074;5.126;2023-04-03T08:53:13;3.10;;;1.10;;
20511;SDS011;10414;52.074;5.126;2023-04-03T08:55:43;3.65;;;1.13;;
20511;SDS011;10414;52.074;5.126;2023-04-03T08:58:13;3.85;;;1.05;;
20511;SDS011;10414;52.074;5.126;2023-04-03T09:00:43;3.67;;;1.20;;
20511;SDS011;10414;52.074;5.126;2023-04-03T09:03:14;4.55;;;1.17;;
20511;SDS011;10414;52.074;5.126;2023-04-03T09:05:43;3.42;;;1.08;;
20511;SDS011;10414;52.074;5.126;2023-04-03T09:08:18;4.55;;;1.33;;
20511;SDS011;10414;52.074;5.126;2023-04-03T09:10:49;4.20;;;1.00;;
20511;SDS011;10414;52.074;5.126;2023-04-03T09:13:23;2.72;;;1.05;;
20511;SDS011;10414;52.074;5.126;2023-04-03T09:15:55;3.72;;;0.90;;
20511;SDS011;10414;52.074;5.126;2023-04-03T09:18:24;4.10;;;0.82;;
20511;SDS011;10414;52.074;5.126;2023-04-03T09:20:58;3.25;;;0.85;;
20511;SDS011;10414;52.074;5.126;2023-04-03T09:23:32;3.15;;;1.02;;
20511;SDS011;10414;52.074;5.126;2023-04-03T09:26:03;4.00;;;0.90;;
20511;SDS011;10414;52.074;5.126;2023-04-03T09:28:35;3.83;;;0.70;;
20511;SDS011;10414;52.074;5.126;2023-04-03T09:31:05;3.05;;;0.90;;
20511;SDS011;10414;52.074;5.126;2023-04-03T09:33:44;2.85;;;0.90;;
20511;SDS011;10414;52.074;5.126;2023-04-03T09:36:11;2.92;;;0.90;;
20511;SDS011;10414;52.074;5.126;2023-04-03T09:38:38;2.55;;;0.75;;
20511;SDS011;10414;52.074;5.126;2023-04-03T09:41:06;3.10;;;1.00;;
20511;SDS011;10414;52.074;5.126;2023-04-03T09:43:41;2.22;;;0.80;;
20511;SDS011;10414;52.074;5.126;2023-04-03T09:46:24;2.25;;;0.80;;
20511;SDS011;10414;52.074;5.126;2023-04-03T09:48:55;3.60;;;0.80;;
20511;SDS011;10414;52.074;5.126;2023-04-03T09:51:24;4.28;;;0.90;;
20511;SDS011;10414;52.074;5.126;2023-04-03T09:53:53;2.40;;;0.80;;
20511;SDS011;10414;52.074;5.126;2023-04-03T09:56:22;1.63;;;0.68;;
20511;SDS011;10414;52.074;5.126;2023-04-03T09:59:03;4.43;;;0.90;;
20511;SDS011;10414;52.074;5.126;2023-04-03T10:01:57;3.97;;;0.80;;
20511;SDS011;10414;52.074;5.126;2023-04-03T10:04:25;1.90;;;0.70;;
20511;SDS011;10414;52.074;5.126;2023-04-03T10:07:02;2.38;;;0.70;;
20511;SDS011;10414;52.074;5.126;2023-04-03T10:09:30;3.92;;;0.75;;
20511;SDS011;10414;52.074;5.126;2023-04-03T10:12:00;2.90;;;0.80;;
20511;SDS011;10414;52.074;5.126;2023-04-03T10:14:31;2.20;;;0.75;;
20511;SDS011;10414;52.074;5.126;2023-04-03T10:17:00;3.85;;;0.75;;
20511;SDS011;10414;52.074;5.126;2023-04-03T10:19:34;2.50;;;0.77;;
20511;SDS011;10414;52.074;5.126;2023-04-03T10:22:08;2.10;;;0.70;;
20511;SDS011;10414;52.074;5.126;2023-04-03T10:24:47;2.83;;;0.60;;
20511;SDS011;10414;52.074;5.126;2023-04-03T10:27:27;2.28;;;0.52;;
20511;SDS011;10414;52.074;5.126;2023-04-03T10:30:07;1.92;;;0.60;;
20511;SDS011;10414;52.074;5.126;2023-04-03T10:32:48;1.40;;;0.50;;
20511;SDS011;10414;52.074;5.126;2023-04-03T10:35:27;1.33;;;0.50;;
20511;SDS011;10414;52.074;5.126;2023-04-03T10:38:04;2.58;;;0.50;;
20511;SDS011;10414;52.074;5.126;2023-04-03T10:40:40;1.77;;;0.50;;
20511;SDS011;10414;52.074;5.126;2023-04-03T10:43:15;2.17;;;0.60;;
20511;SDS011;10414;52.074;5.126;2023-04-03T10:45:51;1.65;;;0.50;;
20511;SDS011;10414;52.074;5.126;2023-04-03T10:48:34;2.80;;;0.52;;
20511;SDS011;10414;52.074;5.126;2023-04-03T10:51:14;1.95;;;0.40;;
20511;SDS011;10414;52.074;5.126;2023-04-03T10:53:50;2.17;;;0.55;;
20511;SDS011;10414;52.074;5.126;2023-04-03T10:56:24;1.67;;;0.57;;
20511;SDS011;10414;52.074;5.126;2023-04-03T10:58:58;1.77;;;0.43;;
20511;SDS011;10414;52.074;5.126;2023-04-03T11:01:33;1.65;;;0.57;;
20511;SDS011;10414;52.074;5.126;2023-04-03T11:04:04;1.40;;;0.50;;
20511;SDS011;10414;52.074;5.126;2023-04-03T11:06:34;1.55;;;0.60;;
20511;SDS011;10414;52.074;5.126;2023-04-03T11:09:05;1.58;;;0.40;;
20511;SDS011;10414;52.074;5.126;2023-04-03T11:11:38;1.65;;;0.65;;
20511;SDS011;10414;52.074;5.126;2023-04-03T11:14:09;0.85;;;0.60;;
20511;SDS011;10414;52.074;5.126;2023-04-03T11:16:43;1.35;;;0.50;;
20511;SDS011;10414;52.074;5.126;2023-04-03T11:19:15;1.42;;;0.50;;
20511;SDS011;10414;52.074;5.126;2023-04-03T11:21:51;2.25;;;0.55;;
20511;SDS011;10414;52.074;5.126;2023-04-03T11:24:24;1.60;;;0.50;;
20511;SDS011;10414;52.074;5.126;2023-04-03T11:26:54;1.30;;;0.50;;
20511;SDS011;10414;52.074;5.126;2023-04-03T11:29:22;1.25;;;0.50;;
20511;SDS011;10414;52.074;5.126;2023-04-03T11:32:00;3.72;;;0.70;;
20511;SDS011;10414;52.074;5.126;2023-04-03T11:34:34;1.70;;;0.60;;
20511;SDS011;10414;52.074;5.126;2023-04-03T11:37:05;4.28;;;0.60;;
20511;SDS011;10414;52.074;5.126;2023-04-03T11:39:39;2.38;;;0.57;;
20511;SDS011;10414;52.074;5.126;2023-04-03T11:42:19;3.00;;;0.70;;
20511;SDS011;10414;52.074;5.126;2023-04-03T11:44:55;2.25;;;0.60;;
20511;SDS011;10414;52.074;5.126;2023-04-03T11:47:45;3.03;;;0.75;;
20511;SDS011;10414;52.074;5.126;2023-04-03T11:56:01;1.25;;;0.55;;
20511;SDS011;10414;52.074;5.126;2023-04-03T11:58:31;1.83;;;0.60;;
20511;SDS011;10414;52.074;5.126;2023-04-03T12:00:59;4.32;;;0.90;;
20511;SDS011;10414;52.074;5.126;2023-04-03T12:03:34;2.42;;;0.80;;
20511;SDS011;10414;52.074;5.126;2023-04-03T12:12:27;2.60;;;0.95;;
20511;SDS011;10414;52.074;5.126;2023-04-03T12:15:11;1.70;;;0.60;;
20511;SDS011;10414;52.074;5.126;2023-04-03T12:17:44;2.03;;;0.68;;
20511;SDS011;10414;52.074;5.126;2023-04-03T12:23:28;2.50;;;0.70;;
20511;SDS011;10414;52.074;5.126;2023-04-03T12:26:02;3.15;;;0.73;;
20511;SDS011;10414;52.074;5.126;2023-04-03T12:28:46;2.08;;;0.70;;
20511;SDS011;10414;52.074;5.126;2023-04-03T12:31:15;1.95;;;0.40;;
20511;SDS011;10414;52.074;5.126;2023-04-03T12:33:58;2.25;;;0.70;;
20511;SDS011;10414;52.074;5.126;2023-04-03T12:36:39;2.20;;;0.65;;
20511;SDS011;10414;52.074;5.126;2023-04-03T12:39:16;2.90;;;0.80;;
20511;SDS011;10414;52.074;5.126;2023-04-03T12:42:11;2.92;;;0.60;;
20511;SDS011;10414;52.074;5.126;2023-04-03T12:44:48;3.20;;;0.68;;
20511;SDS011;10414;52.074;5.126;2023-04-03T12:47:24;2.28;;;0.73;;
20511;SDS011;10414;52.074;5.126;2023-04-03T12:49:57;2.50;;;0.80;;
20511;SDS011;10414;52.074;5.126;2023-04-03T12:52:35;2.83;;;0.70;;
20511;SDS011;10414;52.074;5.126;2023-04-03T12:55:14;2.97;;;0.90;;
20511;SDS011;10414;52.074;5.126;2023-04-03T12:57:42;3.53;;;0.80;;
20511;SDS011;10414;52.074;5.126;2023-04-03T13:00:27;4.22;;;0.80;;
20511;SDS011;10414;52.074;5.126;2023-04-03T13:02:59;2.88;;;0.88;;
20511;SDS011;10414;52.074;5.126;2023-04-03T13:05:27;2.55;;;0.82;;
20511;SDS011;10414;52.074;5.126;2023-04-03T13:07:57;2.15;;;0.90;;
20511;SDS011;10414;52.074;5.126;2023-04-03T13:10:27;2.50;;;0.70;;
20511;SDS011;10414;52.074;5.126;2023-04-03T13:12:54;3.25;;;0.85;;
20511;SDS011;10414;52.074;5.126;2023-04-03T13:15:23;3.42;;;0.80;;
20511;SDS011;10414;52.074;5.126;2023-04-03T13:17:53;6.45;;;0.80;;
20511;SDS011;10414;52.074;5.126;2023-04-03T13:20:23;2.05;;;0.52;;
20511;SDS011;10414;52.074;5.126;2023-04-03T13:22:53;2.40;;;0.70;;
20511;SDS011;10414;52.074;5.126;2023-04-03T13:25:24;1.77;;;0.63;;
20511;SDS011;10414;52.074;5.126;2023-04-03T13:27:53;2.38;;;0.80;;
20511;SDS011;10414;52.074;5.126;2023-04-03T13:30:23;2.80;;;0.90;;
20511;SDS011;10414;52.074;5.126;2023-04-03T13:32:53;3.28;;;0.80;;
20511;SDS011;10414;52.074;5.126;2023-04-03T13:35:28;2.38;;;0.80;;
20511;SDS011;10414;52.074;5.126;2023-04-03T13:38:01;2.47;;;0.85;;
20511;SDS011;10414;52.074;5.126;2023-04-03T13:40:32;2.20;;;0.80;;
20511;SDS011;10414;52.074;5.126;2023-04-03T13:43:00;3.60;;;1.10;;
20511;SDS011;10414;52.074;5.126;2023-04-03T13:45:29;5.72;;;1.10;;
20511;SDS011;10414;52.074;5.126;2023-04-03T13:48:07;2.28;;;0.70;;
20511;SDS011;10414;52.074;5.126;2023-04-03T13:50:58;2.45;;;0.82;;
20511;SDS011;10414;52.074;5.126;2023-04-03T13:53:27;2.78;;;0.80;;
20511;SDS011;10414;52.074;5.126;2023-04-03T13:55:59;4.38;;;0.82;;
20511;SDS011;10414;52.074;5.126;2023-04-03T13:58:32;2.63;;;0.80;;
20511;SDS011;10414;52.074;5.126;2023-04-03T14:03:37;3.90;;;0.80;;
20511;SDS011;10414;52.074;5.126;2023-04-03T14:06:10;3.15;;;1.15;;
20511;SDS011;10414;52.074;5.126;2023-04-03T14:08:41;9.43;;;1.55;;
20511;SDS011;10414;52.074;5.126;2023-04-03T14:11:10;3.95;;;0.85;;
20511;SDS011;10414;52.074;5.126;2023-04-03T14:13:40;3.08;;;1.08;;
20511;SDS011;10414;52.074;5.126;2023-04-03T14:16:11;4.47;;;1.02;;
20511;SDS011;10414;52.074;5.126;2023-04-03T14:18:39;3.13;;;1.15;;
20511;SDS011;10414;52.074;5.126;2023-04-03T14:21:06;2.58;;;0.85;;
20511;SDS011;10414;52.074;5.126;2023-04-03T14:23:33;3.35;;;0.95;;
20511;SDS011;10414;52.074;5.126;2023-04-03T14:26:00;3.83;;;1.10;;
20511;SDS011;10414;52.074;5.126;2023-04-03T14:28:28;3.08;;;0.82;;
20511;SDS011;10414;52.074;5.126;2023-04-03T14:30:55;4.00;;;1.13;;
20511;SDS011;10414;52.074;5.126;2023-04-03T14:33:22;4.15;;;1.05;;
20511;SDS011;10414;52.074;5.126;2023-04-03T14:35:52;2.83;;;0.70;;
20511;SDS011;10414;52.074;5.126;2023-04-03T14:38:24;3.33;;;1.30;;
20511;SDS011;10414;52.074;5.126;2023-04-03T14:40:52;3.38;;;0.90;;
20511;SDS011;10414;52.074;5.126;2023-04-03T14:43:21;2.95;;;0.85;;
20511;SDS011;10414;52.074;5.126;2023-04-03T14:45:49;3.75;;;1.05;;
20511;SDS011;10414;52.074;5.126;2023-04-03T14:48:18;5.80;;;0.90;;
20511;SDS011;10414;52.074;5.126;2023-04-03T14:50:46;4.30;;;1.45;;
20511;SDS011;10414;52.074;5.126;2023-04-03T14:53:14;3.80;;;1.20;;
20511;SDS011;10414;52.074;5.126;2023-04-03T14:55:42;4.57;;;1.30;;
20511;SDS011;10414;52.074;5.126;2023-04-03T14:58:14;2.63;;;0.90;;
20511;SDS011;10414;52.074;5.126;2023-04-03T15:00:42;2.92;;;1.00;;
20511;SDS011;10414;52.074;5.126;2023-04-03T15:03:13;3.83;;;1.10;;
20511;SDS011;10414;52.074;5.126;2023-04-03T15:05:41;4.60;;;1.17;;
20511;SDS011;10414;52.074;5.126;2023-04-03T15:08:13;2.67;;;0.82;;
20511;SDS011;10414;52.074;5.126;2023-04-03T15:10:45;4.63;;;1.10;;
20511;SDS011;10414;52.074;5.126;2023-04-03T15:13:13;3.92;;;1.05;;
20511;SDS011;10414;52.074;5.126;2023-04-03T15:15:40;3.58;;;0.90;;
20511;SDS011;10414;52.074;5.126;2023-04-03T15:18:09;4.03;;;1.08;;
20511;SDS011;10414;52.074;5.126;2023-04-03T15:20:41;4.03;;;1.10;;
20511;SDS011;10414;52.074;5.126;2023-04-03T15:23:08;4.95;;;1.20;;
20511;SDS011;10414;52.074;5.126;2023-04-03T15:25:36;2.90;;;0.80;;